sensor_id;sensor_type;location;lat;lon;timestamp;temperature;humidity
21612;DHT22;47005;52.292;13.452;2022-12-17T00:00:43;1.60;99.40
21612;DHT22;47005;52.292;13.452;2022-12-17T00:03:27;1.60;99.40
21612;DHT22;47005;52.292;13.452;2022-12-17T00:06:12;1.60;99.40
21612;DHT22;47005;52.292;13.452;2022-12-17T00:08:56;1.60;99.40
21612;DHT22;47005;52.292;13.452;2022-12-17T00:11:40;1.60;99.40
21612;DHT22;47005;52.292;13.452;2022-12-17T00:14:37;1.60;99.40
21612;DHT22;47005;52.292;13.452;2022-12-17T00:17:22;1.60;99.40
21612;DHT22;47005;52.292;13.452;2022-12-17T00:20:14;1.60;99.40
21612;DHT22;47005;52.292;13.452;2022-12-17T00:22:59;1.60;99.30
21612;DHT22;47005;52.292;13.452;2022-12-17T00:25:51;1.60;99.30
21612;DHT22;47005;52.292;13.452;2022-12-17T00:28:36;1.60;99.60
21612;DHT22;47005;52.292;13.452;2022-12-17T00:31:21;1.60;99.30
21612;DHT22;47005;52.292;13.452;2022-12-17T00:34:21;1.60;99.40
21612;DHT22;47005;52.292;13.452;2022-12-17T00:37:06;1.60;99.40
21612;DHT22;47005;52.292;13.452;2022-12-17T00:39:50;1.70;99.40
21612;DHT22;47005;52.292;13.452;2022-12-17T00:42:34;1.60;99.40
21612;DHT22;47005;52.292;13.452;2022-12-17T00:45:18;1.60;99.40
21612;DHT22;47005;52.292;13.452;2022-12-17T00:48:02;1.60;99.50
21612;DHT22;47005;52.292;13.452;2022-12-17T00:50:47;1.60;99.40
21612;DHT22;47005;52.292;13.452;2022-12-17T00:53:31;1.60;99.40
21612;DHT22;47005;52.292;13.452;2022-12-17T00:56:15;1.60;99.50
21612;DHT22;47005;52.292;13.452;2022-12-17T00:58:59;1.60;99.50
21612;DHT22;47005;52.292;13.452;2022-12-17T01:01:43;1.60;99.50
21612;DHT22;47005;52.292;13.452;2022-12-17T01:04:27;1.60;99.50
21612;DHT22;47005;52.292;13.452;2022-12-17T01:07:11;1.60;99.50
21612;DHT22;47005;52.292;13.452;2022-12-17T01:09:55;1.60;99.50
21612;DHT22;47005;52.292;13.452;2022-12-17T01:12:39;1.60;99.50
21612;DHT22;47005;52.292;13.452;2022-12-17T01:15:24;1.60;99.50
21612;DHT22;47005;52.292;13.452;2022-12-17T01:18:08;1.60;99.60
21612;DHT22;47005;52.292;13.452;2022-12-17T01:20:56;1.60;99.50
21612;DHT22;47005;52.292;13.452;2022-12-17T01:23:40;1.60;99.60
21612;DHT22;47005;52.292;13.452;2022-12-17T01:26:24;1.60;99.60
21612;DHT22;47005;52.292;13.452;2022-12-17T01:29:08;1.60;99.60
21612;DHT22;47005;52.292;13.452;2022-12-17T01:31:52;1.60;99.60
21612;DHT22;47005;52.292;13.452;2022-12-17T01:34:36;1.60;99.60
21612;DHT22;47005;52.292;13.452;2022-12-17T01:37:20;1.60;99.60
21612;DHT22;47005;52.292;13.452;2022-12-17T01:40:05;1.60;99.60
21612;DHT22;47005;52.292;13.452;2022-12-17T01:42:49;1.60;99.60
21612;DHT22;47005;52.292;13.452;2022-12-17T01:45:40;1.60;99.60
21612;DHT22;47005;52.292;13.452;2022-12-17T01:48:46;1.60;99.60
21612;DHT22;47005;52.292;13.452;2022-12-17T01:51:31;1.60;99.60
21612;DHT22;47005;52.292;13.452;2022-12-17T01:54:17;1.60;99.60
21612;DHT22;47005;52.292;13.452;2022-12-17T01:57:03;1.70;99.60
21612;DHT22;47005;52.292;13.452;2022-12-17T01:59:56;1.60;99.60
21612;DHT22;47005;52.292;13.452;2022-12-17T02:02:41;1.60;99.60
21612;DHT22;47005;52.292;13.452;2022-12-17T02:06:18;1.60;99.70
21612;DHT22;47005;52.292;13.452;2022-12-17T02:15:30;1.60;99.70
21612;DHT22;47005;52.292;13.452;2022-12-17T02:17:57;1.60;99.70
21612;DHT22;47005;52.292;13.452;2022-12-17T02:20:48;1.60;99.70
21612;DHT22;47005;52.292;13.452;2022-12-17T02:27:02;1.60;99.70
21612;DHT22;47005;52.292;13.452;2022-12-17T02:29:54;1.60;99.80
21612;DHT22;47005;52.292;13.452;2022-12-17T02:32:43;1.60;99.80
21612;DHT22;47005;52.292;13.452;2022-12-17T02:35:32;1.60;99.80
21612;DHT22;47005;52.292;13.452;2022-12-17T02:38:23;1.60;99.80
21612;DHT22;47005;52.292;13.452;2022-12-17T02:41:12;1.60;99.80
21612;DHT22;47005;52.292;13.452;2022-12-17T02:43:58;1.60;99.90
21612;DHT22;47005;52.292;13.452;2022-12-17T02:46:43;1.60;99.90
21612;DHT22;47005;52.292;13.452;2022-12-17T02:49:28;1.60;99.90
21612;DHT22;47005;52.292;13.452;2022-12-17T02:52:15;1.60;99.90
21612;DHT22;47005;52.292;13.452;2022-12-17T02:55:00;1.60;99.90
21612;DHT22;47005;52.292;13.452;2022-12-17T02:57:45;1.60;99.90
21612;DHT22;47005;52.292;13.452;2022-12-17T03:00:29;1.60;99.90
21612;DHT22;47005;52.292;13.452;2022-12-17T03:03:13;1.60;99.90
21612;DHT22;47005;52.292;13.452;2022-12-17T03:05:57;1.60;99.90
21612;DHT22;47005;52.292;13.452;2022-12-17T03:08:41;1.70;99.90
21612;DHT22;47005;52.292;13.452;2022-12-17T03:11:29;1.70;99.90
21612;DHT22;47005;52.292;13.452;2022-12-17T03:14:14;1.70;99.90
21612;DHT22;47005;52.292;13.452;2022-12-17T03:16:58;1.70;99.90
21612;DHT22;47005;52.292;13.452;2022-12-17T03:19:43;1.70;99.90
21612;DHT22;47005;52.292;13.452;2022-12-17T03:22:27;1.70;99.90
21612;DHT22;47005;52.292;13.452;2022-12-17T03:25:12;1.70;99.90
21612;DHT22;47005;52.292;13.452;2022-12-17T03:28:05;1.70;99.90
21612;DHT22;47005;52.292;13.452;2022-12-17T03:30:49;1.70;99.90
21612;DHT22;47005;52.292;13.452;2022-12-17T03:33:33;1.70;99.90
21612;DHT22;47005;52.292;13.452;2022-12-17T03:36:17;1.70;99.90
21612;DHT22;47005;52.292;13.452;2022-12-17T03:39:01;1.70;99.90
21612;DHT22;47005;52.292;13.452;2022-12-17T03:41:45;1.70;99.90
21612;DHT22;47005;52.292;13.452;2022-12-17T03:44:29;1.70;99.90
21612;DHT22;47005;52.292;13.452;2022-12-17T03:47:13;1.70;99.90
21612;DHT22;47005;52.292;13.452;2022-12-17T03:49:58;1.70;99.90
21612;DHT22;47005;52.292;13.452;2022-12-17T03:52:42;1.70;99.90
21612;DHT22;47005;52.292;13.452;2022-12-17T03:55:26;1.70;99.90
21612;DHT22;47005;52.292;13.452;2022-12-17T03:58:10;1.70;99.90
21612;DHT22;47005;52.292;13.452;2022-12-17T04:00:54;1.70;99.90
21612;DHT22;47005;52.292;13.452;2022-12-17T04:03:38;1.70;99.90
21612;DHT22;47005;52.292;13.452;2022-12-17T04:06:22;1.70;99.90
21612;DHT22;47005;52.292;13.452;2022-12-17T04:09:06;1.70;99.90
21612;DHT22;47005;52.292;13.452;2022-12-17T04:11:50;1.70;99.90
21612;DHT22;47005;52.292;13.452;2022-12-17T04:14:34;1.70;99.90
21612;DHT22;47005;52.292;13.452;2022-12-17T04:17:18;1.60;99.90
21612;DHT22;47005;52.292;13.452;2022-12-17T04:20:03;1.60;99.90
21612;DHT22;47005;52.292;13.452;2022-12-17T04:22:48;1.60;99.90
21612;DHT22;47005;52.292;13.452;2022-12-17T04:25:32;1.60;99.90
21612;DHT22;47005;52.292;13.452;2022-12-17T04:28:16;1.60;99.90
21612;DHT22;47005;52.292;13.452;2022-12-17T04:31:00;1.60;99.90
21612;DHT22;47005;52.292;13.452;2022-12-17T04:33:44;1.60;99.90
21612;DHT22;47005;52.292;13.452;2022-12-17T04:36:28;1.60;99.90
21612;DHT22;47005;52.292;13.452;2022-12-17T04:39:12;1.60;99.90
21612;DHT22;47005;52.292;13.452;2022-12-17T04:41:56;1.60;99.90
21612;DHT22;47005;52.292;13.452;2022-12-17T04:44:41;1.60;99.90
21612;DHT22;47005;52.292;13.452;2022-12-17T04:47:25;1.60;99.90
21612;DHT22;47005;52.292;13.452;2022-12-17T04:50:09;1.60;99.90
21612;DHT22;47005;52.292;13.452;2022-12-17T04:53:00;1.60;99.90
21612;DHT22;47005;52.292;13.452;2022-12-17T04:55:45;1.60;99.90
21612;DHT22;47005;52.292;13.452;2022-12-17T04:58:29;1.60;99.90
21612;DHT22;47005;52.292;13.452;2022-12-17T05:01:13;1.60;99.90
21612;DHT22;47005;52.292;13.452;2022-12-17T05:03:57;1.60;99.90
21612;DHT22;47005;52.292;13.452;2022-12-17T05:06:41;1.60;99.90
21612;DHT22;47005;52.292;13.452;2022-12-17T05:09:25;1.60;99.90
21612;DHT22;47005;52.292;13.452;2022-12-17T05:12:09;1.60;99.90
21612;DHT22;47005;52.292;13.452;2022-12-17T05:14:55;1.60;99.90
21612;DHT22;47005;52.292;13.452;2022-12-17T05:17:39;1.60;99.90
21612;DHT22;47005;52.292;13.452;2022-12-17T05:20:23;1.60;99.90
21612;DHT22;47005;52.292;13.452;2022-12-17T05:23:08;1.60;99.90
21612;DHT22;47005;52.292;13.452;2022-12-17T05:26:20;1.50;99.90
21612;DHT22;47005;52.292;13.452;2022-12-17T05:29:04;1.60;99.90
21612;DHT22;47005;52.292;13.452;2022-12-17T05:31:49;1.60;99.90
21612;DHT22;47005;52.292;13.452;2022-12-17T05:34:33;1.50;99.90
21612;DHT22;47005;52.292;13.452;2022-12-17T05:37:17;1.50;99.90
21612;DHT22;47005;52.292;13.452;2022-12-17T05:40:02;1.60;99.90
21612;DHT22;47005;52.292;13.452;2022-12-17T05:43:04;1.60;99.90
21612;DHT22;47005;52.292;13.452;2022-12-17T05:45:48;1.50;99.90
21612;DHT22;47005;52.292;13.452;2022-12-17T05:48:33;1.50;99.90
21612;DHT22;47005;52.292;13.452;2022-12-17T05:51:19;1.50;99.90
21612;DHT22;47005;52.292;13.452;2022-12-17T05:54:04;1.50;99.90
21612;DHT22;47005;52.292;13.452;2022-12-17T05:56:48;1.50;99.90
21612;DHT22;47005;52.292;13.452;2022-12-17T05:59:32;1.50;99.90
21612;DHT22;47005;52.292;13.452;2022-12-17T06:02:16;1.50;99.90
21612;DHT22;47005;52.292;13.452;2022-12-17T06:05:01;1.50;99.90
21612;DHT22;47005;52.292;13.452;2022-12-17T06:07:45;1.50;99.90
21612;DHT22;47005;52.292;13.452;2022-12-17T06:10:29;1.50;99.90
21612;DHT22;47005;52.292;13.452;2022-12-17T06:13:13;1.50;99.90
21612;DHT22;47005;52.292;13.452;2022-12-17T06:15:58;1.50;99.90
21612;DHT22;47005;52.292;13.452;2022-12-17T06:18:42;1.50;99.90
21612;DHT22;47005;52.292;13.452;2022-12-17T06:21:26;1.50;99.90
21612;DHT22;47005;52.292;13.452;2022-12-17T06:24:10;1.50;99.90
21612;DHT22;47005;52.292;13.452;2022-12-17T06:26:54;1.50;99.90
21612;DHT22;47005;52.292;13.452;2022-12-17T06:29:38;1.50;99.90
21612;DHT22;47005;52.292;13.452;2022-12-17T06:32:22;1.50;99.90
21612;DHT22;47005;52.292;13.452;2022-12-17T06:35:06;1.40;99.90
21612;DHT22;47005;52.292;13.452;2022-12-17T06:38:02;1.50;99.90
21612;DHT22;47005;52.292;13.452;2022-12-17T06:40:46;1.40;99.90
21612;DHT22;47005;52.292;13.452;2022-12-17T06:43:30;1.40;99.90
21612;DHT22;47005;52.292;13.452;2022-12-17T06:46:14;1.40;99.90
21612;DHT22;47005;52.292;13.452;2022-12-17T06:48:59;1.40;99.90
21612;DHT22;47005;52.292;13.452;2022-12-17T06:51:43;1.50;99.90
21612;DHT22;47005;52.292;13.452;2022-12-17T06:54:27;1.40;99.90
21612;DHT22;47005;52.292;13.452;2022-12-17T06:57:11;1.40;99.90
21612;DHT22;47005;52.292;13.452;2022-12-17T06:59:55;1.40;99.90
21612;DHT22;47005;52.292;13.452;2022-12-17T07:02:40;1.40;99.90
21612;DHT22;47005;52.292;13.452;2022-12-17T07:05:24;1.40;99.90
21612;DHT22;47005;52.292;13.452;2022-12-17T07:08:08;1.40;99.90
21612;DHT22;47005;52.292;13.452;2022-12-17T07:10:52;1.50;99.90
21612;DHT22;47005;52.292;13.452;2022-12-17T07:13:36;1.40;99.90
21612;DHT22;47005;52.292;13.452;2022-12-17T07:16:20;1.40;99.90
21612;DHT22;47005;52.292;13.452;2022-12-17T07:19:04;1.40;99.90
21612;DHT22;47005;52.292;13.452;2022-12-17T07:21:48;1.40;99.90
21612;DHT22;47005;52.292;13.452;2022-12-17T07:24:32;1.40;99.90
21612;DHT22;47005;52.292;13.452;2022-12-17T07:27:17;1.40;99.90
21612;DHT22;47005;52.292;13.452;2022-12-17T07:30:01;1.40;99.90
21612;DHT22;47005;52.292;13.452;2022-12-17T07:32:45;1.40;99.90
21612;DHT22;47005;52.292;13.452;2022-12-17T07:35:29;1.40;99.90
21612;DHT22;47005;52.292;13.452;2022-12-17T07:38:13;1.40;99.90
21612;DHT22;47005;52.292;13.452;2022-12-17T07:41:00;1.40;99.90
21612;DHT22;47005;52.292;13.452;2022-12-17T07:43:44;1.40;99.90
21612;DHT22;47005;52.292;13.452;2022-12-17T07:46:28;1.40;99.90
21612;DHT22;47005;52.292;13.452;2022-12-17T07:49:12;1.40;99.90
21612;DHT22;47005;52.292;13.452;2022-12-17T07:51:56;1.40;99.90
21612;DHT22;47005;52.292;13.452;2022-12-17T07:54:40;1.40;99.90
21612;DHT22;47005;52.292;13.452;2022-12-17T07:57:25;1.40;99.90
21612;DHT22;47005;52.292;13.452;2022-12-17T08:00:09;1.40;99.90
21612;DHT22;47005;52.292;13.452;2022-12-17T08:02:58;1.40;99.90
21612;DHT22;47005;52.292;13.452;2022-12-17T08:05:43;1.40;99.90
21612;DHT22;47005;52.292;13.452;2022-12-17T08:08:27;1.40;99.90
21612;DHT22;47005;52.292;13.452;2022-12-17T08:11:11;1.40;99.90
21612;DHT22;47005;52.292;13.452;2022-12-17T08:13:55;1.40;99.90
21612;DHT22;47005;52.292;13.452;2022-12-17T08:16:40;1.50;99.90
21612;DHT22;47005;52.292;13.452;2022-12-17T08:19:24;1.40;99.90
21612;DHT22;47005;52.292;13.452;2022-12-17T08:22:08;1.40;99.90
21612;DHT22;47005;52.292;13.452;2022-12-17T08:24:52;1.40;99.90
21612;DHT22;47005;52.292;13.452;2022-12-17T08:27:36;1.40;99.90
21612;DHT22;47005;52.292;13.452;2022-12-17T08:30:20;1.40;99.90
21612;DHT22;47005;52.292;13.452;2022-12-17T08:33:05;1.40;99.90
21612;DHT22;47005;52.292;13.452;2022-12-17T08:35:56;1.40;99.80
21612;DHT22;47005;52.292;13.452;2022-12-17T08:38:40;1.40;99.80
21612;DHT22;47005;52.292;13.452;2022-12-17T08:41:25;1.40;99.90
21612;DHT22;47005;52.292;13.452;2022-12-17T08:44:10;1.40;99.90
21612;DHT22;47005;52.292;13.452;2022-12-17T08:46:54;1.40;99.80
21612;DHT22;47005;52.292;13.452;2022-12-17T08:49:38;1.40;99.90
21612;DHT22;47005;52.292;13.452;2022-12-17T08:52:22;1.40;99.90
21612;DHT22;47005;52.292;13.452;2022-12-17T08:55:06;1.40;99.90
21612;DHT22;47005;52.292;13.452;2022-12-17T08:57:55;1.40;99.90
21612;DHT22;47005;52.292;13.452;2022-12-17T09:00:39;1.40;99.90
21612;DHT22;47005;52.292;13.452;2022-12-17T09:03:23;1.40;99.90
21612;DHT22;47005;52.292;13.452;2022-12-17T09:06:08;1.50;99.80
21612;DHT22;47005;52.292;13.452;2022-12-17T09:08:52;1.40;99.90
21612;DHT22;47005;52.292;13.452;2022-12-17T09:11:36;1.50;99.80
21612;DHT22;47005;52.292;13.452;2022-12-17T09:14:20;1.50;99.90
21612;DHT22;47005;52.292;13.452;2022-12-17T09:17:05;1.50;99.70
21612;DHT22;47005;52.292;13.452;2022-12-17T09:19:49;1.50;99.80
21612;DHT22;47005;52.292;13.452;2022-12-17T09:22:33;1.50;99.80
21612;DHT22;47005;52.292;13.452;2022-12-17T09:25:17;1.40;99.70
21612;DHT22;47005;52.292;13.452;2022-12-17T09:28:02;1.40;99.80
21612;DHT22;47005;52.292;13.452;2022-12-17T09:30:46;1.50;99.90
21612;DHT22;47005;52.292;13.452;2022-12-17T09:33:30;1.40;99.90
21612;DHT22;47005;52.292;13.452;2022-12-17T09:36:16;1.40;99.90
21612;DHT22;47005;52.292;13.452;2022-12-17T09:39:00;1.40;99.80
21612;DHT22;47005;52.292;13.452;2022-12-17T09:44:52;1.50;99.70
21612;DHT22;47005;52.292;13.452;2022-12-17T09:47:59;1.50;99.70
21612;DHT22;47005;52.292;13.452;2022-12-17T09:50:49;1.40;99.80
21612;DHT22;47005;52.292;13.452;2022-12-17T09:53:46;1.50;99.70
21612;DHT22;47005;52.292;13.452;2022-12-17T09:56:32;1.50;99.50
21612;DHT22;47005;52.292;13.452;2022-12-17T09:59:20;1.40;99.40
21612;DHT22;47005;52.292;13.452;2022-12-17T10:02:24;1.40;99.50
21612;DHT22;47005;52.292;13.452;2022-12-17T10:05:18;1.40;99.60
21612;DHT22;47005;52.292;13.452;2022-12-17T10:08:05;1.40;99.60
21612;DHT22;47005;52.292;13.452;2022-12-17T10:10:49;1.40;99.50
21612;DHT22;47005;52.292;13.452;2022-12-17T10:13:34;1.40;99.50
21612;DHT22;47005;52.292;13.452;2022-12-17T10:16:47;1.40;99.60
21612;DHT22;47005;52.292;13.452;2022-12-17T10:19:34;1.40;99.60
21612;DHT22;47005;52.292;13.452;2022-12-17T10:22:20;1.50;99.70
21612;DHT22;47005;52.292;13.452;2022-12-17T10:25:08;1.40;99.70
21612;DHT22;47005;52.292;13.452;2022-12-17T10:28:06;1.50;99.70
21612;DHT22;47005;52.292;13.452;2022-12-17T10:30:54;1.50;99.70
21612;DHT22;47005;52.292;13.452;2022-12-17T10:33:39;1.50;99.70
21612;DHT22;47005;52.292;13.452;2022-12-17T10:36:24;1.50;99.70
21612;DHT22;47005;52.292;13.452;2022-12-17T10:39:21;1.50;99.50
21612;DHT22;47005;52.292;13.452;2022-12-17T10:42:29;1.50;99.50
21612;DHT22;47005;52.292;13.452;2022-12-17T10:45:26;1.50;99.50
21612;DHT22;47005;52.292;13.452;2022-12-17T10:48:23;1.50;99.60
21612;DHT22;47005;52.292;13.452;2022-12-17T10:54:28;1.40;99.60
21612;DHT22;47005;52.292;13.452;2022-12-17T10:57:35;1.50;99.70
21612;DHT22;47005;52.292;13.452;2022-12-17T11:00:25;1.40;99.70
21612;DHT22;47005;52.292;13.452;2022-12-17T11:03:38;1.40;99.80
21612;DHT22;47005;52.292;13.452;2022-12-17T11:06:38;1.40;99.80
21612;DHT22;47005;52.292;13.452;2022-12-17T11:09:48;1.50;99.60
21612;DHT22;47005;52.292;13.452;2022-12-17T11:12:56;1.50;99.70
21612;DHT22;47005;52.292;13.452;2022-12-17T11:15:48;1.50;99.50
21612;DHT22;47005;52.292;13.452;2022-12-17T11:18:57;1.50;99.50
21612;DHT22;47005;52.292;13.452;2022-12-17T11:21:59;1.50;99.50
21612;DHT22;47005;52.292;13.452;2022-12-17T11:27:43;1.50;99.70
21612;DHT22;47005;52.292;13.452;2022-12-17T11:30:28;1.50;99.60
21612;DHT22;47005;52.292;13.452;2022-12-17T11:36:40;1.50;99.70
21612;DHT22;47005;52.292;13.452;2022-12-17T11:39:32;1.50;99.50
21612;DHT22;47005;52.292;13.452;2022-12-17T11:42:52;1.50;99.50
21612;DHT22;47005;52.292;13.452;2022-12-17T11:52:32;1.60;99.70
21612;DHT22;47005;52.292;13.452;2022-12-17T11:55:39;1.60;99.60
21612;DHT22;47005;52.292;13.452;2022-12-17T11:58:52;1.60;99.60
21612;DHT22;47005;52.292;13.452;2022-12-17T12:07:30;1.60;99.50
21612;DHT22;47005;52.292;13.452;2022-12-17T12:10:21;1.60;99.50
21612;DHT22;47005;52.292;13.452;2022-12-17T12:28:41;1.60;99.80
21612;DHT22;47005;52.292;13.452;2022-12-17T12:31:53;1.60;99.70
21612;DHT22;47005;52.292;13.452;2022-12-17T12:34:39;1.60;99.70
21612;DHT22;47005;52.292;13.452;2022-12-17T12:37:25;1.60;99.60
21612;DHT22;47005;52.292;13.452;2022-12-17T12:40:23;1.60;99.60
21612;DHT22;47005;52.292;13.452;2022-12-17T12:43:34;1.70;99.50
21612;DHT22;47005;52.292;13.452;2022-12-17T12:46:37;1.60;99.60
21612;DHT22;47005;52.292;13.452;2022-12-17T12:49:53;1.60;99.60
21612;DHT22;47005;52.292;13.452;2022-12-17T12:52:58;1.60;99.60
21612;DHT22;47005;52.292;13.452;2022-12-17T12:55:42;1.60;99.60
21612;DHT22;47005;52.292;13.452;2022-12-17T12:58:32;1.70;99.60
21612;DHT22;47005;52.292;13.452;2022-12-17T13:01:17;1.60;99.40
21612;DHT22;47005;52.292;13.452;2022-12-17T13:04:33;1.60;99.40
21612;DHT22;47005;52.292;13.452;2022-12-17T13:07:27;1.60;99.50
21612;DHT22;47005;52.292;13.452;2022-12-17T13:09:57;1.60;99.40
21612;DHT22;47005;52.292;13.452;2022-12-17T13:12:43;1.60;99.50
21612;DHT22;47005;52.292;13.452;2022-12-17T13:15:25;1.60;99.40
21612;DHT22;47005;52.292;13.452;2022-12-17T13:18:20;1.60;99.50
21612;DHT22;47005;52.292;13.452;2022-12-17T13:20:59;1.60;99.50
21612;DHT22;47005;52.292;13.452;2022-12-17T13:23:28;1.60;99.60
21612;DHT22;47005;52.292;13.452;2022-12-17T13:26:24;1.60;99.90
21612;DHT22;47005;52.292;13.452;2022-12-17T13:31:24;1.60;99.70
21612;DHT22;47005;52.292;13.452;2022-12-17T13:41:56;1.60;99.50
21612;DHT22;47005;52.292;13.452;2022-12-17T13:44:37;1.60;99.50
21612;DHT22;47005;52.292;13.452;2022-12-17T13:47:04;1.60;99.50
21612;DHT22;47005;52.292;13.452;2022-12-17T13:49:30;1.60;99.40
21612;DHT22;47005;52.292;13.452;2022-12-17T13:52:15;1.60;99.50
21612;DHT22;47005;52.292;13.452;2022-12-17T13:54:41;1.60;99.50
21612;DHT22;47005;52.292;13.452;2022-12-17T13:57:14;1.50;99.50
21612;DHT22;47005;52.292;13.452;2022-12-17T13:59:47;1.60;99.60
21612;DHT22;47005;52.292;13.452;2022-12-17T14:02:33;1.60;99.60
21612;DHT22;47005;52.292;13.452;2022-12-17T14:05:04;1.60;99.60
21612;DHT22;47005;52.292;13.452;2022-12-17T14:07:33;1.60;99.60
21612;DHT22;47005;52.292;13.452;2022-12-17T14:10:01;1.60;99.60
21612;DHT22;47005;52.292;13.452;2022-12-17T14:12:27;1.50;99.60
21612;DHT22;47005;52.292;13.452;2022-12-17T14:14:58;1.50;99.60
21612;DHT22;47005;52.292;13.452;2022-12-17T14:17:35;1.50;99.70
21612;DHT22;47005;52.292;13.452;2022-12-17T14:22:35;1.50;99.60
21612;DHT22;47005;52.292;13.452;2022-12-17T14:25:03;1.60;99.70
21612;DHT22;47005;52.292;13.452;2022-12-17T14:27:34;1.60;99.60
21612;DHT22;47005;52.292;13.452;2022-12-17T14:30:02;1.60;99.60
21612;DHT22;47005;52.292;13.452;2022-12-17T14:32:35;1.60;99.60
21612;DHT22;47005;52.292;13.452;2022-12-17T14:35:02;1.60;99.60
21612;DHT22;47005;52.292;13.452;2022-12-17T14:37:29;1.60;99.60
21612;DHT22;47005;52.292;13.452;2022-12-17T14:40:00;1.60;99.60
21612;DHT22;47005;52.292;13.452;2022-12-17T14:42:27;1.60;99.50
21612;DHT22;47005;52.292;13.452;2022-12-17T14:44:59;1.60;99.60
21612;DHT22;47005;52.292;13.452;2022-12-17T14:47:28;1.50;99.50
21612;DHT22;47005;52.292;13.452;2022-12-17T14:50:22;1.50;99.50
21612;DHT22;47005;52.292;13.452;2022-12-17T14:52:50;1.50;99.40
21612;DHT22;47005;52.292;13.452;2022-12-17T14:55:36;1.50;99.40
21612;DHT22;47005;52.292;13.452;2022-12-17T15:03:31;1.40;99.40
21612;DHT22;47005;52.292;13.452;2022-12-17T15:06:06;1.50;99.50
21612;DHT22;47005;52.292;13.452;2022-12-17T15:08:40;1.40;99.30
21612;DHT22;47005;52.292;13.452;2022-12-17T15:11:06;1.40;99.40
21612;DHT22;47005;52.292;13.452;2022-12-17T15:13:32;1.40;99.40
21612;DHT22;47005;52.292;13.452;2022-12-17T15:15:58;1.30;99.40
21612;DHT22;47005;52.292;13.452;2022-12-17T15:18:24;1.30;99.50
21612;DHT22;47005;52.292;13.452;2022-12-17T15:20:49;1.30;99.50
21612;DHT22;47005;52.292;13.452;2022-12-17T15:23:17;1.40;99.50
21612;DHT22;47005;52.292;13.452;2022-12-17T15:25:44;1.30;99.60
21612;DHT22;47005;52.292;13.452;2022-12-17T15:28:10;1.30;99.60
21612;DHT22;47005;52.292;13.452;2022-12-17T15:30:36;1.30;99.60
21612;DHT22;47005;52.292;13.452;2022-12-17T15:33:05;1.30;99.60
21612;DHT22;47005;52.292;13.452;2022-12-17T15:35:31;1.30;99.60
21612;DHT22;47005;52.292;13.452;2022-12-17T15:37:57;1.30;99.60
21612;DHT22;47005;52.292;13.452;2022-12-17T15:40:22;1.30;99.50
21612;DHT22;47005;52.292;13.452;2022-12-17T15:42:48;1.30;99.50
21612;DHT22;47005;52.292;13.452;2022-12-17T15:45:32;1.30;99.50
21612;DHT22;47005;52.292;13.452;2022-12-17T15:47:58;1.30;99.40
21612;DHT22;47005;52.292;13.452;2022-12-17T15:50:23;1.40;99.40
21612;DHT22;47005;52.292;13.452;2022-12-17T15:52:49;1.30;99.40
21612;DHT22;47005;52.292;13.452;2022-12-17T15:55:15;1.30;99.20
21612;DHT22;47005;52.292;13.452;2022-12-17T15:57:42;1.20;99.20
21612;DHT22;47005;52.292;13.452;2022-12-17T16:00:08;1.20;99.30
21612;DHT22;47005;52.292;13.452;2022-12-17T16:02:34;1.20;99.40
21612;DHT22;47005;52.292;13.452;2022-12-17T16:05:00;1.20;99.40
21612;DHT22;47005;52.292;13.452;2022-12-17T16:07:25;1.20;99.20
21612;DHT22;47005;52.292;13.452;2022-12-17T16:09:51;1.20;99.20
21612;DHT22;47005;52.292;13.452;2022-12-17T16:12:17;1.20;99.20
21612;DHT22;47005;52.292;13.452;2022-12-17T16:14:43;1.30;99.30
21612;DHT22;47005;52.292;13.452;2022-12-17T16:17:09;1.20;99.30
21612;DHT22;47005;52.292;13.452;2022-12-17T16:19:34;1.10;99.20
21612;DHT22;47005;52.292;13.452;2022-12-17T16:22:00;1.20;99.30
21612;DHT22;47005;52.292;13.452;2022-12-17T16:24:26;1.10;99.20
21612;DHT22;47005;52.292;13.452;2022-12-17T16:26:51;1.10;99.30
21612;DHT22;47005;52.292;13.452;2022-12-17T16:29:17;1.10;99.30
21612;DHT22;47005;52.292;13.452;2022-12-17T16:31:43;1.10;99.30
21612;DHT22;47005;52.292;13.452;2022-12-17T16:34:11;1.10;99.30
21612;DHT22;47005;52.292;13.452;2022-12-17T16:36:37;1.10;99.30
21612;DHT22;47005;52.292;13.452;2022-12-17T16:39:03;1.10;99.40
21612;DHT22;47005;52.292;13.452;2022-12-17T16:41:29;1.10;99.30
21612;DHT22;47005;52.292;13.452;2022-12-17T16:43:55;1.10;99.30
21612;DHT22;47005;52.292;13.452;2022-12-17T16:46:32;1.10;99.30
21612;DHT22;47005;52.292;13.452;2022-12-17T16:49:07;1.10;99.20
21612;DHT22;47005;52.292;13.452;2022-12-17T16:51:34;1.10;99.30
21612;DHT22;47005;52.292;13.452;2022-12-17T16:54:06;1.00;99.30
21612;DHT22;47005;52.292;13.452;2022-12-17T16:56:32;1.10;99.30
21612;DHT22;47005;52.292;13.452;2022-12-17T16:58:58;1.00;99.20
21612;DHT22;47005;52.292;13.452;2022-12-17T17:01:27;1.00;99.20
21612;DHT22;47005;52.292;13.452;2022-12-17T17:03:54;1.00;99.10
21612;DHT22;47005;52.292;13.452;2022-12-17T17:06:23;1.00;99.20
21612;DHT22;47005;52.292;13.452;2022-12-17T17:08:49;1.00;99.20
21612;DHT22;47005;52.292;13.452;2022-12-17T17:11:17;1.00;99.20
21612;DHT22;47005;52.292;13.452;2022-12-17T17:13:46;1.00;99.20
21612;DHT22;47005;52.292;13.452;2022-12-17T17:16:12;0.90;99.00
21612;DHT22;47005;52.292;13.452;2022-12-17T17:18:38;1.00;99.10
21612;DHT22;47005;52.292;13.452;2022-12-17T17:23:45;0.90;99.00
21612;DHT22;47005;52.292;13.452;2022-12-17T17:26:11;0.90;99.00
21612;DHT22;47005;52.292;13.452;2022-12-17T17:28:37;0.90;99.00
21612;DHT22;47005;52.292;13.452;2022-12-17T17:31:06;0.90;99.00
21612;DHT22;47005;52.292;13.452;2022-12-17T17:33:37;0.90;99.10
21612;DHT22;47005;52.292;13.452;2022-12-17T17:36:11;0.90;99.10
21612;DHT22;47005;52.292;13.452;2022-12-17T17:38:38;0.90;99.00
21612;DHT22;47005;52.292;13.452;2022-12-17T17:41:05;0.80;99.00
21612;DHT22;47005;52.292;13.452;2022-12-17T17:43:31;0.80;99.00
21612;DHT22;47005;52.292;13.452;2022-12-17T17:46:08;0.90;98.90
21612;DHT22;47005;52.292;13.452;2022-12-17T17:48:34;0.80;99.00
21612;DHT22;47005;52.292;13.452;2022-12-17T17:51:03;0.80;99.00
21612;DHT22;47005;52.292;13.452;2022-12-17T17:53:29;0.80;99.00
21612;DHT22;47005;52.292;13.452;2022-12-17T17:56:00;0.80;99.00
21612;DHT22;47005;52.292;13.452;2022-12-17T17:58:26;0.80;99.00
21612;DHT22;47005;52.292;13.452;2022-12-17T18:00:51;0.80;98.90
21612;DHT22;47005;52.292;13.452;2022-12-17T18:03:17;0.80;99.00
21612;DHT22;47005;52.292;13.452;2022-12-17T18:05:42;0.80;99.00
21612;DHT22;47005;52.292;13.452;2022-12-17T18:08:08;0.80;98.90
21612;DHT22;47005;52.292;13.452;2022-12-17T18:10:34;0.70;98.90
21612;DHT22;47005;52.292;13.452;2022-12-17T18:13:00;0.80;98.90
21612;DHT22;47005;52.292;13.452;2022-12-17T18:15:44;0.70;98.80